This is the latest recevied weather packets stored in our database for station/object E24CR-1. If no packets are shown the sender has not sent any weather packets the latest 10 day(s).
| Time | Temp. | Humidity | Pressure | Rain* | Wind** | Luminosity | Snow |
|---|---|---|---|---|---|---|---|
| 1777708338 | 35.56° C | 31% | 948 hPa | - | - | 0 W/m² | - |
| 1777707714 | 35.56° C | 31% | 948 hPa | - | - | 0 W/m² | - |
| 1777707090 | 37.22° C | 30% | 948 hPa | - | - | 0 W/m² | - |
| 1777706466 | 36.67° C | 30% | 948 hPa | - | - | 0 W/m² | - |
| 1777705842 | 36.67° C | 30% | 948 hPa | - | - | 0 W/m² | - |
| 1777705217 | 36.67° C | 30% | 949 hPa | - | - | 0 W/m² | - |
| 1777704593 | 37.22° C | 30% | 949 hPa | - | - | 0 W/m² | - |
| 1777703969 | 36.11° C | 33% | 949 hPa | - | - | 0 W/m² | - |
| 1777703345 | 35.56° C | 33% | 949 hPa | - | - | 0 W/m² | - |
| 1777702721 | 36.11° C | 32% | 950 hPa | - | - | 0 W/m² | - |
| 1777702097 | 34.44° C | 36% | 950 hPa | - | - | 0 W/m² | - |
| 1777701472 | 35.56° C | 34% | 950 hPa | - | - | 0 W/m² | - |
| 1777700848 | 35.56° C | 34% | 950 hPa | - | - | 0 W/m² | - |
| 1777700224 | 36.11° C | 34% | 951 hPa | - | - | 0 W/m² | - |
| 1777699600 | 36.11° C | 34% | 951 hPa | - | - | 0 W/m² | - |
| 1777698976 | 36.67° C | 33% | 951 hPa | - | - | 0 W/m² | - |
| 1777698352 | 36.11° C | 34% | 951 hPa | - | - | 0 W/m² | - |
| 1777697728 | 36.11° C | 35% | 951 hPa | - | - | 0 W/m² | - |
| 1777697104 | 34.44° C | 38% | 951 hPa | - | - | 0 W/m² | - |
| 1777696479 | 34.44° C | 37% | 952 hPa | - | - | 0 W/m² | - |
| 1777695855 | 35.56° C | 36% | 952 hPa | - | - | 0 W/m² | - |
| 1777695231 | 33.89° C | 40% | 952 hPa | - | - | 0 W/m² | - |
| 1777694607 | 33.89° C | 40% | 952 hPa | - | - | 0 W/m² | - |
| 1777693983 | 34.44° C | 40% | 952 hPa | - | - | 0 W/m² | - |
| 1777693358 | 35° C | 39% | 952 hPa | - | - | 0 W/m² | - |
* Rain since midnight (hover to see other rain measurements)
** Current wind speed in m/s (hover to see current wind gust speed)